createdAt,value
2022-08-26T00:01:35.069Z,18.70
2022-08-26T00:05:36.904Z,12.20
2022-08-26T00:09:40.095Z,17.17
2022-08-26T00:13:42.234Z,15.30
2022-08-26T00:17:51.923Z,12.60
2022-08-26T00:21:53.445Z,12.68
2022-08-26T00:25:54.957Z,17.75
2022-08-26T00:29:58.328Z,11.85
2022-08-26T00:33:59.809Z,17.80
2022-08-26T00:38:01.869Z,17.20
2022-08-26T00:42:03.972Z,19.70
2022-08-26T00:46:13.622Z,14.88
2022-08-26T00:50:21.783Z,13.98
2022-08-26T00:54:27.323Z,18.13
2022-08-26T00:58:31.468Z,23.23
2022-08-26T01:02:32.978Z,13.77
2022-08-26T01:06:34.861Z,17.35
2022-08-26T01:10:37.190Z,13.90
2022-08-26T01:14:40.688Z,14.38
2022-08-26T01:18:43.357Z,21.05
2022-08-26T01:22:56.903Z,11.30
2022-08-26T01:27:05.335Z,12.10
2022-08-26T01:31:11.362Z,18.67
2022-08-26T01:35:16.384Z,15.32
2022-08-26T01:39:20.645Z,12.82
2022-08-26T01:43:27.174Z,19.25
2022-08-26T01:47:31.394Z,17.98
2022-08-26T01:51:36.974Z,18.10
2022-08-26T01:55:41.685Z,19.70
2022-08-26T01:59:43.255Z,11.85
2022-08-26T02:04:10.615Z,22.77
2022-08-26T02:08:13.166Z,17.60
2022-08-26T02:12:18.244Z,14.63
2022-08-26T02:16:24.345Z,18.23
2022-08-26T02:20:26.584Z,17.17
2022-08-26T02:24:46.144Z,26.42
2022-08-26T02:29:07.551Z,17.17
2022-08-26T02:33:09.469Z,14.75
2022-08-26T02:37:11.491Z,22.35
2022-08-26T02:41:13.258Z,16.02
2022-08-26T02:45:16.794Z,15.55
2022-08-26T02:49:26.079Z,19.98
2022-08-26T02:53:31.695Z,23.33
2022-08-26T02:57:34.586Z,17.92
2022-08-26T03:01:36.393Z,17.10
2022-08-26T03:05:38.000Z,14.52
2022-08-26T03:09:41.683Z,15.20
2022-08-26T03:13:43.218Z,14.50
2022-08-26T03:17:49.115Z,18.10
2022-08-26T03:21:53.647Z,22.02
2022-08-26T03:25:59.615Z,18.55
2022-08-26T03:30:19.986Z,25.83
2022-08-26T03:34:21.545Z,16.05
2022-08-26T03:38:27.135Z,23.15
2022-08-26T03:42:29.011Z,22.83
2022-08-26T03:46:35.321Z,20.92
2022-08-26T03:50:37.309Z,31.15
2022-08-26T03:54:40.540Z,22.60
2022-08-26T03:58:45.024Z,21.90
2022-08-26T04:02:50.979Z,21.73
2022-08-26T04:06:58.953Z,18.80
2022-08-26T04:11:01.240Z,16.40
2022-08-26T04:15:05.962Z,25.13
2022-08-26T04:19:08.766Z,20.35
2022-08-26T04:23:10.270Z,27.88
2022-08-26T04:27:12.080Z,19.05
2022-08-26T04:31:15.510Z,18.98
2022-08-26T04:35:17.231Z,20.88
2022-08-26T04:39:20.179Z,20.73
2022-08-26T04:43:21.710Z,20.48
2022-08-26T04:47:23.154Z,18.67
2022-08-26T04:51:27.974Z,18.23
2022-08-26T04:55:39.671Z,17.02
2022-08-26T04:59:44.410Z,17.90
2022-08-26T05:03:46.416Z,17.40
2022-08-26T05:07:47.931Z,21.25
2022-08-26T05:11:52.106Z,27.20
2022-08-26T05:15:54.603Z,21.83
2022-08-26T05:20:00.617Z,23.33
2022-08-26T05:24:02.210Z,19.33
2022-08-26T05:28:04.529Z,18.88
2022-08-26T05:32:07.464Z,15.98
2022-08-26T05:36:15.233Z,18.20
2022-08-26T05:40:17.107Z,21.85
2022-08-26T05:44:21.077Z,21.35
2022-08-26T05:48:24.444Z,22.75
2022-08-26T05:52:26.194Z,20.75
2022-08-26T05:56:30.139Z,18.85
2022-08-26T06:00:31.614Z,21.48
2022-08-26T06:04:33.113Z,18.45
2022-08-26T06:08:35.091Z,21.23
2022-08-26T06:12:37.432Z,17.35
2022-08-26T06:16:41.286Z,16.83
2022-08-26T06:20:57.934Z,21.98
2022-08-26T06:25:18.394Z,17.15
2022-08-26T06:29:25.341Z,18.35
2022-08-26T06:33:28.749Z,21.13
2022-08-26T06:37:30.188Z,30.08
2022-08-26T06:41:33.521Z,19.02
2022-08-26T06:45:34.954Z,22.75
2022-08-26T06:49:37.163Z,18.15
2022-08-26T06:53:41.278Z,15.63
2022-08-26T06:57:42.753Z,17.75
2022-08-26T07:01:47.124Z,17.00
2022-08-26T07:05:51.276Z,21.40
2022-08-26T07:09:55.227Z,15.80
2022-08-26T07:13:58.831Z,14.98
2022-08-26T07:18:00.292Z,18.25
2022-08-26T07:22:04.694Z,14.80
2022-08-26T07:26:08.290Z,15.38
2022-08-26T07:30:10.383Z,19.38
2022-08-26T07:34:17.130Z,19.23
2022-08-26T07:38:19.389Z,15.57
2022-08-26T07:42:21.171Z,16.92
2022-08-26T07:46:27.528Z,22.10
2022-08-26T07:50:49.294Z,15.63
2022-08-26T07:54:52.091Z,23.00
2022-08-26T07:58:54.028Z,18.17
2022-08-26T08:02:55.687Z,18.35
2022-08-26T08:06:58.635Z,16.98
2022-08-26T08:11:00.449Z,19.92
2022-08-26T08:15:01.896Z,19.88
2022-08-26T08:19:03.788Z,18.08
2022-08-26T08:23:05.563Z,18.27
2022-08-26T08:27:08.815Z,21.08
2022-08-26T08:31:21.620Z,20.13
2022-08-26T08:35:34.674Z,23.30
2022-08-26T08:39:37.118Z,16.98
2022-08-26T08:43:44.668Z,20.38
2022-08-26T08:47:54.597Z,25.13
2022-08-26T08:52:02.364Z,28.17
2022-08-26T08:56:31.899Z,19.50
2022-08-26T09:00:46.436Z,17.70
2022-08-26T09:05:00.812Z,12.40
2022-08-26T09:09:03.890Z,18.02
2022-08-26T09:13:09.989Z,21.67
2022-08-26T09:17:53.330Z,21.73
2022-08-26T09:21:56.915Z,20.70
2022-08-26T09:26:14.031Z,14.30
2022-08-26T09:30:35.318Z,18.70
2022-08-26T09:34:51.603Z,18.08
2022-08-26T09:38:54.047Z,21.45
2022-08-26T09:43:10.712Z,23.48
2022-08-26T09:47:12.416Z,21.90
2022-08-26T09:51:23.079Z,21.02
2022-08-26T09:55:24.591Z,21.95
2022-08-26T09:59:30.539Z,16.67
2022-08-26T10:03:35.346Z,15.18
2022-08-26T10:07:48.368Z,17.98
2022-08-26T10:11:56.180Z,16.70
2022-08-26T10:16:03.723Z,17.02
2022-08-26T10:20:28.555Z,21.80
2022-08-26T10:24:58.041Z,16.23
2022-08-26T10:29:09.937Z,17.60
2022-08-26T10:33:15.341Z,20.98
2022-08-26T10:37:22.732Z,16.80
2022-08-26T10:41:27.765Z,17.50
2022-08-26T10:45:35.239Z,18.23
2022-08-26T10:49:38.254Z,16.15
2022-08-26T10:53:55.724Z,19.58
2022-08-26T10:58:04.756Z,19.42
2022-08-26T11:02:15.395Z,17.75
2022-08-26T11:06:19.860Z,18.75
2022-08-26T11:10:21.318Z,13.73
2022-08-26T11:14:28.360Z,17.73
2022-08-26T11:18:40.573Z,19.65
2022-08-26T11:22:47.913Z,21.70
2022-08-26T11:26:56.388Z,15.65
2022-08-26T11:30:58.487Z,18.60
2022-08-26T11:35:19.365Z,24.20
2022-08-26T11:39:33.374Z,13.52
2022-08-26T11:43:40.516Z,14.05
2022-08-26T11:47:42.100Z,11.50
2022-08-26T11:51:47.743Z,17.65
2022-08-26T11:55:53.250Z,18.15
2022-08-26T11:59:56.471Z,18.17
2022-08-26T12:03:59.995Z,17.20
2022-08-26T12:08:12.063Z,12.77
2022-08-26T12:12:24.581Z,11.35
2022-08-26T12:16:38.419Z,14.02
2022-08-26T12:20:54.180Z,7.65
2022-08-26T12:24:59.645Z,13.25
2022-08-26T12:29:09.409Z,14.35
2022-08-26T12:33:22.833Z,10.35
2022-08-26T12:37:27.074Z,8.65
2022-08-26T12:41:44.964Z,8.90
2022-08-26T12:45:59.879Z,12.70
2022-08-26T12:50:04.256Z,22.17
2022-08-26T12:54:07.204Z,8.73
2022-08-26T12:58:31.724Z,11.45
2022-08-26T13:02:39.781Z,6.22
2022-08-26T13:06:41.294Z,8.52
2022-08-26T13:10:46.588Z,9.35
2022-08-26T13:14:48.050Z,10.13
2022-08-26T13:18:53.021Z,13.23
2022-08-26T13:22:59.136Z,8.32
2022-08-26T13:27:02.089Z,12.18
2022-08-26T13:31:04.836Z,13.73
2022-08-26T13:35:07.613Z,16.85
2022-08-26T13:39:09.134Z,8.90
2022-08-26T13:43:11.517Z,10.88
2022-08-26T13:47:13.376Z,16.40
2022-08-26T13:51:16.469Z,15.20
2022-08-26T13:55:18.057Z,12.32
2022-08-26T13:59:19.644Z,10.88
2022-08-26T14:03:21.548Z,11.45
2022-08-26T14:07:23.720Z,11.63
2022-08-26T14:11:25.353Z,10.70
2022-08-26T14:15:27.791Z,10.00
2022-08-26T14:19:31.494Z,8.05
2022-08-26T14:23:33.228Z,12.40
2022-08-26T14:27:34.705Z,11.80
2022-08-26T14:31:37.789Z,10.95
2022-08-26T14:35:39.975Z,18.27
2022-08-26T14:39:50.196Z,15.27
2022-08-26T14:43:57.984Z,16.30
2022-08-26T14:47:59.799Z,19.45
2022-08-26T14:52:01.611Z,16.38
2022-08-26T14:56:04.034Z,18.63
2022-08-26T15:00:08.037Z,21.20
2022-08-26T15:04:09.545Z,13.30
2022-08-26T15:08:11.502Z,12.80
2022-08-26T15:12:12.988Z,12.63
2022-08-26T15:16:15.215Z,7.38
2022-08-26T15:20:16.831Z,8.02
2022-08-26T15:24:22.006Z,17.70
2022-08-26T15:28:23.627Z,8.00
2022-08-26T15:32:25.113Z,9.85
2022-08-26T15:36:28.910Z,11.20
2022-08-26T15:40:30.440Z,11.57
2022-08-26T15:44:34.006Z,11.80
2022-08-26T15:48:35.483Z,12.60
2022-08-26T15:52:40.921Z,12.23
2022-08-26T15:56:43.460Z,13.40
2022-08-26T16:00:45.221Z,13.95
2022-08-26T16:04:46.829Z,17.13
2022-08-26T16:08:50.010Z,16.90
2022-08-26T16:12:51.505Z,15.15
2022-08-26T16:16:53.412Z,20.35
2022-08-26T16:21:12.787Z,17.60
2022-08-26T16:25:15.577Z,15.75
2022-08-26T16:29:17.958Z,16.40
2022-08-26T16:33:29.201Z,16.27
2022-08-26T16:37:31.340Z,20.23
2022-08-26T16:41:33.035Z,15.10
2022-08-26T16:45:38.081Z,23.05
2022-08-26T16:49:43.823Z,15.27
2022-08-26T16:53:45.975Z,14.77
2022-08-26T16:57:48.307Z,14.68
2022-08-26T17:01:50.151Z,16.42
2022-08-26T17:05:51.671Z,17.35
2022-08-26T17:09:53.188Z,17.70
2022-08-26T17:13:54.772Z,14.20
2022-08-26T17:17:56.814Z,16.02
2022-08-26T17:21:58.375Z,15.07
2022-08-26T17:25:59.900Z,13.27
2022-08-26T17:30:01.363Z,17.85
2022-08-26T17:34:03.491Z,18.73
2022-08-26T17:38:04.999Z,16.90
2022-08-26T17:42:06.566Z,17.60
2022-08-26T17:46:10.060Z,19.02
2022-08-26T17:50:15.761Z,41.75
2022-08-26T17:54:17.230Z,18.17
2022-08-26T17:58:23.217Z,20.67
2022-08-26T18:02:25.265Z,20.05
2022-08-26T18:06:26.900Z,17.23
2022-08-26T18:10:28.454Z,19.02
2022-08-26T18:14:35.302Z,20.13
2022-08-26T18:18:38.308Z,23.10
2022-08-26T18:22:40.154Z,19.90
2022-08-26T18:26:48.016Z,23.58
2022-08-26T18:30:49.493Z,28.25
2022-08-26T18:34:51.102Z,28.08
2022-08-26T18:38:53.103Z,27.02
2022-08-26T18:42:54.597Z,23.15
2022-08-26T18:46:56.103Z,26.63
2022-08-26T18:50:59.140Z,24.77
2022-08-26T18:55:01.960Z,33.63
2022-08-26T18:59:05.444Z,29.90
2022-08-26T19:03:15.589Z,27.92
2022-08-26T19:07:20.829Z,35.10
2022-08-26T19:11:31.556Z,31.85
2022-08-26T19:15:41.173Z,33.65
2022-08-26T19:19:42.742Z,35.58
2022-08-26T19:23:47.025Z,36.38
2022-08-26T19:27:48.564Z,31.00
2022-08-26T19:31:50.235Z,36.25
2022-08-26T19:35:51.816Z,34.35
2022-08-26T19:39:53.427Z,40.08
2022-08-26T19:43:55.564Z,39.20
2022-08-26T19:48:00.188Z,36.90
2022-08-26T19:52:03.013Z,33.78
2022-08-26T19:56:04.549Z,35.80
2022-08-26T20:00:10.957Z,36.58
2022-08-26T20:04:12.829Z,34.42
2022-08-26T20:08:16.847Z,36.75
2022-08-26T20:12:24.818Z,32.10
2022-08-26T20:16:26.384Z,37.58
2022-08-26T20:20:46.438Z,34.08
2022-08-26T20:24:48.496Z,36.00
2022-08-26T20:28:51.021Z,34.85
2022-08-26T20:32:52.890Z,40.47
2022-08-26T20:36:54.630Z,32.17
2022-08-26T20:40:56.373Z,32.35
2022-08-26T20:44:57.978Z,33.38
2022-08-26T20:48:59.516Z,31.02
2022-08-26T20:53:02.239Z,34.45
2022-08-26T20:57:03.884Z,34.25
2022-08-26T21:01:08.016Z,27.45
2022-08-26T21:05:09.946Z,29.05
2022-08-26T21:09:13.170Z,38.67
2022-08-26T21:13:19.966Z,34.42
2022-08-26T21:17:21.538Z,31.50
2022-08-26T21:21:25.129Z,33.55
2022-08-26T21:25:27.026Z,31.15
2022-08-26T21:29:28.587Z,30.17
2022-08-26T21:33:30.078Z,26.77
2022-08-26T21:37:31.588Z,28.40
2022-08-26T21:41:33.115Z,26.73
2022-08-26T21:45:40.006Z,29.80
2022-08-26T21:49:41.575Z,25.73
2022-08-26T21:53:43.351Z,26.92
2022-08-26T21:57:45.172Z,27.00
2022-08-26T22:01:47.155Z,27.35
2022-08-26T22:05:52.115Z,23.33
2022-08-26T22:09:53.594Z,31.30
2022-08-26T22:13:56.960Z,31.88
2022-08-26T22:17:59.484Z,31.25
2022-08-26T22:22:02.286Z,28.02
2022-08-26T22:26:06.434Z,26.38
2022-08-26T22:30:08.184Z,27.92
2022-08-26T22:34:17.064Z,23.10
2022-08-26T22:38:19.698Z,22.90
2022-08-26T22:42:21.221Z,24.35
2022-08-26T22:46:26.070Z,24.90
2022-08-26T22:50:27.575Z,23.60
2022-08-26T22:54:29.072Z,25.58
2022-08-26T22:58:31.074Z,22.75
2022-08-26T23:02:32.588Z,24.85
2022-08-26T23:06:36.396Z,20.15
2022-08-26T23:10:40.571Z,20.50
2022-08-26T23:14:43.863Z,19.00
2022-08-26T23:18:45.383Z,20.30
2022-08-26T23:22:46.953Z,21.58
2022-08-26T23:26:48.702Z,16.75
2022-08-26T23:30:50.430Z,23.35
2022-08-26T23:34:58.960Z,17.10
2022-08-26T23:39:00.857Z,16.88
2022-08-26T23:43:06.543Z,20.67
2022-08-26T23:47:08.367Z,16.33
2022-08-26T23:51:34.266Z,22.33
2022-08-26T23:55:37.239Z,19.65
2022-08-26T23:59:39.052Z,18.70
